createdAt,value
2023-05-14T00:00:53.781Z,36.77
2023-05-14T00:01:57.483Z,36.77
2023-05-14T00:03:01.300Z,36.62
2023-05-14T00:04:05.292Z,36.82
2023-05-14T00:05:10.011Z,36.47
2023-05-14T00:06:13.803Z,36.58
2023-05-14T00:07:17.490Z,36.82
2023-05-14T00:08:21.131Z,36.68
2023-05-14T00:09:24.770Z,36.70
2023-05-14T00:10:28.769Z,36.71
2023-05-14T00:11:32.438Z,36.44
2023-05-14T00:12:36.170Z,36.44
2023-05-14T00:13:41.547Z,36.63
2023-05-14T00:14:45.225Z,36.51
2023-05-14T00:15:48.951Z,36.85
2023-05-14T00:16:52.814Z,36.76
2023-05-14T00:17:56.573Z,36.80
2023-05-14T00:19:00.369Z,36.62
2023-05-14T00:20:04.552Z,36.98
2023-05-14T00:21:08.243Z,36.80
2023-05-14T00:22:12.429Z,36.61
2023-05-14T00:23:16.176Z,36.26
2023-05-14T00:24:19.835Z,36.57
2023-05-14T00:25:23.642Z,36.51
2023-05-14T00:26:27.272Z,36.54
2023-05-14T00:27:30.974Z,36.51
2023-05-14T00:28:37.612Z,36.29
2023-05-14T00:29:43.118Z,36.64
2023-05-14T00:30:46.893Z,36.24
2023-05-14T00:31:50.672Z,36.33
2023-05-14T00:32:54.502Z,36.24
2023-05-14T00:33:58.167Z,36.17
2023-05-14T00:35:02.006Z,36.33
2023-05-14T00:36:06.017Z,35.87
2023-05-14T00:37:09.837Z,36.17
2023-05-14T00:38:13.558Z,36.27
2023-05-14T00:39:17.238Z,36.43
2023-05-14T00:40:21.636Z,36.28
2023-05-14T00:41:25.460Z,36.07
2023-05-14T00:42:29.225Z,36.23
2023-05-14T00:43:32.898Z,36.01
2023-05-14T00:44:37.105Z,35.78
2023-05-14T00:45:42.489Z,35.26
2023-05-14T00:46:46.404Z,35.66
2023-05-14T00:47:50.530Z,35.85
2023-05-14T00:48:54.672Z,35.43
2023-05-14T00:49:58.486Z,35.44
2023-05-14T00:51:02.198Z,35.38
2023-05-14T00:52:06.390Z,35.73
2023-05-14T00:53:11.048Z,35.30
2023-05-14T00:54:15.515Z,35.56
2023-05-14T00:55:19.971Z,35.52
2023-05-14T00:56:23.978Z,35.31
2023-05-14T00:57:27.968Z,35.08
2023-05-14T00:58:31.773Z,35.28
2023-05-14T00:59:35.931Z,35.44
2023-05-14T01:00:41.989Z,35.32
2023-05-14T01:01:45.946Z,36.14
2023-05-14T01:02:49.709Z,35.67
2023-05-14T01:03:53.733Z,35.89
2023-05-14T01:04:57.716Z,35.70
2023-05-14T01:06:11.065Z,34.64
2023-05-14T01:07:21.819Z,35.29
2023-05-14T01:08:33.741Z,35.49
2023-05-14T01:09:43.594Z,35.38
2023-05-14T01:10:53.089Z,35.33
2023-05-14T01:12:02.576Z,34.93
2023-05-14T01:13:22.817Z,35.17
2023-05-14T01:14:38.506Z,35.09
2023-05-14T01:15:45.355Z,35.77
2023-05-14T01:16:51.140Z,35.61
2023-05-14T01:17:58.818Z,35.32
2023-05-14T01:19:03.632Z,36.19
2023-05-14T01:20:09.216Z,35.41
2023-05-14T01:21:45.206Z,35.17
2023-05-14T01:22:48.949Z,36.13
2023-05-14T01:23:52.653Z,35.81
2023-05-14T01:24:56.424Z,35.44
2023-05-14T01:26:00.148Z,35.55
2023-05-14T01:27:11.585Z,36.16
2023-05-14T01:28:19.276Z,35.47
2023-05-14T01:29:25.383Z,35.42
2023-05-14T01:30:32.616Z,35.80
2023-05-14T01:31:40.036Z,35.24
2023-05-14T01:32:47.718Z,35.43
2023-05-14T01:33:52.929Z,34.95
2023-05-14T01:34:59.198Z,35.11
2023-05-14T01:36:06.653Z,35.30
2023-05-14T01:37:13.764Z,34.19
2023-05-14T01:38:20.266Z,34.77
2023-05-14T01:39:25.789Z,34.24
2023-05-14T01:40:30.562Z,33.99
2023-05-14T01:41:34.785Z,33.81
2023-05-14T01:42:39.253Z,34.33
2023-05-14T01:43:43.140Z,33.88
2023-05-14T01:44:47.192Z,34.43
2023-05-14T01:45:50.998Z,34.64
2023-05-14T01:46:54.803Z,33.91
2023-05-14T01:47:58.890Z,34.51
2023-05-14T01:49:02.780Z,34.19
2023-05-14T01:50:07.296Z,34.08
2023-05-14T01:51:10.931Z,34.41
2023-05-14T01:52:16.244Z,34.17
2023-05-14T01:53:19.988Z,34.33
2023-05-14T01:54:23.769Z,34.67
2023-05-14T01:55:27.468Z,34.22
2023-05-14T01:56:31.148Z,34.04
2023-05-14T01:57:34.820Z,34.08
2023-05-14T01:58:38.441Z,34.11
2023-05-14T01:59:42.095Z,34.36
2023-05-14T02:00:45.837Z,35.14
2023-05-14T15:53:21.553Z,49.42
2023-05-14T15:54:25.280Z,49.85
2023-05-14T15:55:29.016Z,49.65
2023-05-14T15:56:32.787Z,49.57
2023-05-14T15:57:36.543Z,49.87
2023-05-14T15:58:40.419Z,49.80
2023-05-14T15:59:44.315Z,49.86
2023-05-14T16:00:47.950Z,50.49
2023-05-14T16:01:52.193Z,50.11
2023-05-14T16:02:55.959Z,49.96
2023-05-14T16:03:59.781Z,50.30
2023-05-14T16:05:03.645Z,49.82
2023-05-14T16:06:07.844Z,50.55
2023-05-14T16:07:12.001Z,50.48
2023-05-14T16:08:17.904Z,50.43
2023-05-14T16:09:23.230Z,50.58
2023-05-14T16:10:27.288Z,49.92
2023-05-14T16:11:31.838Z,50.58
2023-05-14T16:12:35.612Z,50.61
2023-05-14T16:13:39.443Z,50.25
2023-05-14T16:14:43.124Z,50.36
2023-05-14T16:15:46.918Z,50.12
2023-05-14T16:16:50.935Z,50.32
2023-05-14T16:17:54.896Z,50.84
2023-05-14T16:18:58.698Z,50.71
2023-05-14T16:20:02.517Z,50.59
2023-05-14T16:21:06.289Z,50.70
2023-05-14T16:22:10.004Z,51.06
2023-05-14T16:23:13.707Z,51.20
2023-05-14T16:24:19.195Z,51.32
2023-05-14T16:25:24.589Z,51.23
2023-05-14T16:26:28.368Z,50.94
2023-05-14T16:27:32.220Z,51.35
2023-05-14T16:28:38.228Z,51.12
2023-05-14T16:29:42.045Z,51.04
2023-05-14T16:30:45.853Z,50.95
2023-05-14T16:31:49.706Z,51.45
2023-05-14T16:32:53.597Z,51.89
2023-05-14T16:33:57.340Z,51.51
2023-05-14T16:35:01.067Z,51.63
2023-05-14T16:36:07.746Z,51.44
2023-05-14T16:37:13.137Z,51.18
2023-05-14T16:38:17.407Z,51.46
2023-05-14T16:39:23.375Z,51.05
2023-05-14T16:40:31.784Z,51.71
2023-05-14T16:41:37.708Z,51.24
2023-05-14T16:42:41.543Z,50.98
2023-05-14T16:43:45.259Z,51.49
2023-05-14T16:44:49.030Z,51.30
2023-05-14T16:45:52.783Z,50.81
2023-05-14T16:46:57.218Z,51.77
2023-05-14T16:48:01.101Z,51.31
2023-05-14T16:49:05.079Z,51.17
2023-05-14T16:50:09.476Z,50.60
2023-05-14T16:51:13.178Z,51.04
2023-05-14T16:52:16.881Z,50.84
2023-05-14T16:53:20.700Z,51.28
2023-05-14T16:54:24.475Z,51.29
2023-05-14T16:55:30.009Z,50.27
2023-05-14T16:56:33.672Z,50.20
2023-05-14T16:57:37.360Z,50.89
2023-05-14T16:58:41.066Z,51.13
2023-05-14T16:59:47.623Z,50.78
2023-05-14T17:00:51.440Z,50.61
2023-05-14T17:01:56.078Z,49.98
2023-05-14T17:03:02.079Z,51.10
2023-05-14T17:04:05.843Z,50.45
2023-05-14T17:05:13.520Z,50.36
2023-05-14T17:06:17.308Z,51.63
2023-05-14T17:07:21.081Z,51.12
2023-05-14T17:08:24.809Z,50.67
2023-05-14T17:09:28.596Z,51.41
2023-05-14T17:10:33.960Z,51.55
2023-05-14T17:11:37.679Z,51.05
2023-05-14T17:12:41.366Z,52.08
2023-05-14T17:13:45.744Z,51.30
2023-05-14T17:14:49.451Z,51.88
2023-05-14T17:15:53.196Z,51.56
2023-05-14T17:16:56.909Z,51.87
2023-05-14T17:18:00.765Z,51.03
2023-05-14T17:19:07.665Z,51.85
2023-05-14T17:20:13.643Z,52.79
2023-05-14T17:21:20.931Z,51.78
2023-05-14T17:22:24.548Z,51.60
2023-05-14T17:23:28.235Z,51.63
2023-05-14T17:24:31.962Z,51.07
2023-05-14T17:25:37.303Z,51.74
2023-05-14T17:26:41.042Z,51.77
2023-05-14T17:27:46.697Z,51.72
2023-05-14T17:28:50.276Z,51.68
2023-05-14T17:29:53.964Z,51.54
2023-05-14T17:31:00.380Z,52.62
2023-05-14T17:32:13.616Z,52.14
2023-05-14T17:33:17.395Z,51.70
2023-05-14T17:34:21.254Z,51.76
2023-05-14T17:35:25.207Z,51.61
2023-05-14T17:36:29.010Z,51.58
2023-05-14T17:37:32.707Z,51.71
2023-05-14T17:38:36.736Z,51.51
2023-05-14T17:39:40.398Z,50.94
2023-05-14T17:40:45.698Z,51.21
2023-05-14T17:41:49.383Z,52.08
2023-05-14T17:42:53.236Z,51.69
2023-05-14T17:43:56.932Z,51.81
2023-05-14T17:45:00.628Z,51.50
2023-05-14T17:46:04.345Z,51.28
2023-05-14T17:47:08.501Z,51.54
2023-05-14T17:48:12.338Z,51.79
2023-05-14T17:49:16.040Z,51.32
2023-05-14T17:50:19.938Z,51.09
2023-05-14T17:51:23.596Z,50.82
2023-05-14T17:52:27.416Z,50.98
2023-05-14T17:53:31.130Z,50.58
2023-05-14T17:54:34.861Z,51.02
2023-05-14T17:55:38.572Z,50.95
2023-05-14T17:56:44.031Z,51.29
2023-05-14T17:57:48.235Z,50.93
2023-05-14T17:58:51.965Z,50.56
2023-05-14T17:59:55.616Z,51.01
2023-05-14T18:00:59.331Z,50.42
2023-05-14T18:02:03.030Z,50.61
2023-05-14T18:03:06.878Z,50.15
2023-05-14T18:04:10.655Z,50.78
2023-05-14T18:05:14.423Z,50.48
2023-05-14T18:06:18.090Z,50.30
2023-05-14T18:07:21.797Z,50.71
2023-05-14T18:08:25.512Z,50.43
2023-05-14T18:09:29.233Z,50.67
2023-05-14T18:10:33.205Z,50.49
2023-05-14T18:11:36.975Z,50.22
2023-05-14T18:12:42.339Z,50.36
2023-05-14T18:13:46.209Z,51.04
2023-05-14T18:14:49.937Z,49.93
2023-05-14T18:15:54.191Z,50.04
2023-05-14T18:16:57.986Z,49.92
2023-05-14T18:18:01.836Z,50.45
2023-05-14T18:19:06.000Z,50.64
2023-05-14T18:20:10.574Z,50.32
2023-05-14T18:21:14.294Z,50.13
2023-05-14T18:22:18.007Z,49.94
2023-05-14T18:23:21.661Z,49.97
2023-05-14T18:24:25.294Z,50.40
2023-05-14T18:25:29.353Z,50.09
2023-05-14T18:26:34.354Z,50.21
2023-05-14T18:27:38.173Z,50.32
2023-05-14T18:28:43.611Z,50.42
2023-05-14T18:29:47.299Z,50.89
2023-05-14T18:30:50.957Z,50.24
2023-05-14T18:31:54.691Z,50.56
2023-05-14T18:32:58.368Z,50.03
2023-05-14T18:34:01.995Z,50.97
2023-05-14T18:35:08.003Z,50.01
2023-05-14T18:36:12.229Z,50.73
2023-05-14T18:37:16.071Z,50.35
2023-05-14T18:38:19.805Z,50.68
2023-05-14T18:39:23.446Z,49.99
2023-05-14T18:40:27.095Z,50.35
2023-05-14T18:41:30.738Z,50.07
2023-05-14T18:42:34.472Z,50.28
2023-05-14T18:43:38.172Z,50.63
2023-05-14T18:44:43.545Z,50.02
2023-05-14T18:45:47.617Z,50.32
2023-05-14T18:46:51.337Z,50.70
2023-05-14T18:47:55.857Z,50.31
2023-05-14T18:48:59.536Z,50.63
2023-05-14T18:50:03.240Z,50.70
2023-05-14T18:51:07.012Z,50.19
2023-05-14T18:52:10.743Z,50.47
2023-05-14T18:53:14.396Z,50.25
2023-05-14T18:54:18.119Z,50.43
2023-05-14T18:55:21.922Z,50.65
2023-05-14T18:56:25.680Z,50.07
2023-05-14T18:57:29.410Z,50.07
2023-05-14T18:58:33.437Z,50.44
2023-05-14T18:59:37.153Z,50.22
2023-05-14T19:00:42.598Z,50.22
2023-05-14T19:01:46.320Z,50.16
2023-05-14T19:02:50.157Z,49.96
2023-05-14T19:03:54.278Z,50.34
2023-05-14T19:04:58.128Z,49.86
2023-05-14T19:06:01.927Z,49.88
2023-05-14T19:07:05.869Z,49.91
2023-05-14T19:08:09.504Z,50.03
2023-05-14T19:09:13.209Z,50.50
2023-05-14T19:10:16.883Z,50.07
2023-05-14T19:11:20.593Z,50.37
2023-05-14T19:12:24.233Z,49.73
2023-05-14T19:13:27.932Z,50.36
2023-05-14T19:14:31.640Z,50.44
2023-05-14T19:15:35.377Z,50.08
2023-05-14T19:16:41.417Z,50.64
2023-05-14T19:17:45.197Z,49.80
2023-05-14T19:18:49.067Z,49.90
2023-05-14T19:19:52.859Z,49.90
2023-05-14T19:20:56.497Z,50.01
2023-05-14T19:22:00.188Z,50.17
2023-05-14T19:23:03.930Z,49.83
2023-05-14T19:24:07.940Z,50.00
2023-05-14T19:25:12.051Z,50.02
2023-05-14T19:26:15.734Z,50.09
2023-05-14T19:27:19.502Z,50.09
2023-05-14T19:28:23.352Z,49.83
2023-05-14T19:29:27.051Z,50.08
2023-05-14T19:30:30.682Z,50.02
2023-05-14T19:31:34.413Z,49.70
2023-05-14T19:32:39.905Z,49.98
2023-05-14T19:33:43.766Z,49.66
2023-05-14T19:34:48.406Z,50.54
2023-05-14T19:35:53.243Z,49.88
2023-05-14T19:36:57.006Z,49.56
2023-05-14T19:38:00.770Z,49.70
2023-05-14T19:39:04.600Z,50.22
2023-05-14T19:40:09.481Z,49.84
2023-05-14T19:41:13.494Z,49.76
2023-05-14T19:42:17.404Z,49.82
2023-05-14T19:43:21.153Z,49.63
2023-05-14T19:44:25.009Z,49.33
2023-05-14T19:45:28.824Z,50.00
2023-05-14T19:46:32.663Z,49.86
2023-05-14T19:47:36.556Z,49.89
2023-05-14T19:48:44.498Z,49.81
2023-05-14T19:49:48.493Z,50.10
2023-05-14T19:50:52.287Z,50.03
2023-05-14T19:51:56.089Z,50.33
2023-05-14T19:52:59.756Z,49.96
2023-05-14T19:54:03.520Z,50.23
2023-05-14T19:55:07.617Z,49.96
2023-05-14T19:56:11.250Z,50.26
2023-05-14T19:57:17.345Z,49.96
2023-05-14T19:58:21.069Z,50.20
2023-05-14T19:59:24.765Z,50.18
2023-05-14T20:01:39.552Z,50.76
2023-05-14T20:02:43.339Z,50.28
2023-05-14T20:03:49.039Z,50.50
2023-05-14T20:04:52.713Z,50.57
2023-05-14T20:06:02.984Z,50.36
